Time;durP1;ratioP1;P1;durP2;ratioP2;P2;SDS_P1;SDS_P2;PMS_P1;PMS_P2;Temp;Humidity;BMP_temperature;BMP_pressure;BME280_temperature;BME280_humidity;BME280_pressure;Samples;Min_cycle;Max_cycle;Signal;HPM_P1;HPM_P2
2022/06/02 00:00:10;;;;;;;8.93;6.60;;;;;;;10.14;70.09;101885.91;5043199;28;20108;-73
2022/06/02 00:02:43;;;;;;;;;;;;;;;10.17;67.97;101885.91;5048779;28;20025;-73
2022/06/02 00:05:50;;;;;;;8.02;5.97;;;;;;;10.09;69.64;101882.47;5047439;28;19947;-73
2022/06/02 00:08:37;;;;;;;7.82;6.38;;;;;;;10.01;70.49;101890.34;5047698;28;20049;-73
2022/06/02 00:11:32;;;;;;;7.35;6.22;;;;;;;9.97;70.68;101891.25;5047364;28;20037;-74
2022/06/02 00:14:13;;;;;;;8.50;6.25;;;;;;;9.95;71.20;101897.31;5045399;28;20098;-74
2022/06/02 00:16:57;;;;;;;7.95;6.22;;;;;;;9.94;71.93;101892.97;5045579;28;20057;-74
2022/06/02 00:19:33;;;;;;;9.00;6.20;;;;;;;9.92;70.96;101898.22;5042807;28;20226;-74
2022/06/02 00:22:24;;;;;;;8.13;6.22;;;;;;;9.85;70.28;101889.59;5043168;28;20029;-74
2022/06/02 00:25:00;;;;;;;7.85;6.05;;;;;;;9.74;71.45;101896.56;5041205;28;20095;-74
2022/06/02 00:27:36;;;;;;;7.70;5.75;;;;;;;9.65;71.52;101897.47;5042440;28;20025;-74
2022/06/02 00:30:22;;;;;;;8.13;6.40;;;;;;;9.58;70.65;101900.97;5043091;28;20017;-74
2022/06/02 00:33:13;;;;;;;7.53;5.90;;;;;;;9.56;70.46;101900.97;5042364;28;20028;-74
2022/06/02 00:35:45;;;;;;;7.60;6.05;;;;;;;9.47;71.62;101911.41;5042227;28;20431;-74
2022/06/02 00:38:24;;;;;;;7.65;6.30;;;;;;;9.42;71.65;101905.38;5041577;28;20037;-73
2022/06/02 00:40:50;;;;;;;8.00;6.03;;;;;;;9.37;72.33;101901.94;5040331;28;20476;-74
2022/06/02 00:43:15;;;;;;;7.65;6.43;;;;;;;9.34;72.54;101907.13;5041647;28;20123;-74
2022/06/02 00:45:46;;;;;;;7.93;5.78;;;;;;;9.31;72.10;101904.53;5057901;28;20029;-74
2022/06/02 00:48:21;;;;;;;7.38;5.97;;;;;;;9.31;72.03;101907.16;5040917;28;20028;-74
2022/06/02 00:50:56;;;;;;;8.70;6.95;;;;;;;9.32;71.40;101904.53;5040022;28;20036;-74
2022/06/02 01:00:09;;;;;;;10.82;7.32;;;;;;;9.11;72.67;101906.34;5032391;28;20029;-73
2022/06/02 01:03:02;;;;;;;9.27;7.20;;;;;;;9.12;70.85;101902.00;5042804;28;20411;-73
2022/06/02 01:05:48;;;;;;;11.68;8.18;;;;;;;9.10;71.40;101903.72;5041673;28;20017;-74
2022/06/02 01:08:46;;;;;;;10.43;7.63;;;;;;;9.08;70.50;101905.47;5041978;28;20048;-74
2022/06/02 01:11:50;;;;;;;9.30;7.30;;;;;;;9.02;71.16;101905.50;5042066;28;20028;-74
2022/06/02 01:14:43;;;;;;;10.05;7.15;;;;;;;8.97;71.93;101902.88;5041257;28;20029;-73
2022/06/02 01:17:41;;;;;;;8.88;6.97;;;;;;;8.91;71.94;101908.09;5041867;28;20033;-73
2022/06/02 01:20:40;;;;;;;7.15;6.03;;;;;;;8.84;71.46;101902.06;5042432;28;20039;-74
2022/06/02 01:23:35;;;;;;;7.88;6.03;;;;;;;8.78;72.17;101908.13;5043579;28;20040;-74
2022/06/02 01:26:03;;;;;;;6.78;5.45;;;;;;;8.75;73.15;101907.25;5041732;28;20033;-74
2022/06/02 01:28:47;;;;;;;6.40;5.40;;;;;;;8.74;71.82;101906.41;5045501;28;20066;-73
2022/06/02 01:31:22;;;;;;;7.25;5.85;;;;;;;8.69;73.01;101902.94;5042854;28;20327;-74
2022/06/02 01:34:16;;;;;;;8.00;6.45;;;;;;;8.68;72.21;101905.53;5041889;28;20033;-74
2022/06/02 01:36:56;;;;;;;9.05;6.60;;;;;;;8.63;72.79;101906.41;5040264;28;20060;-74
2022/06/02 01:39:30;;;;;;;9.63;6.65;;;;;;;8.61;73.48;101910.72;5041583;28;20028;-74
2022/06/02 01:42:01;;;;;;;7.45;6.20;;;;;;;8.59;73.43;101907.25;5043376;28;20033;-73
2022/06/02 01:45:05;;;;;;;10.52;6.22;;;;;;;8.58;72.73;101908.13;5040437;28;20338;-73
2022/06/02 01:47:36;;;;;;;8.65;5.72;;;;;;;8.49;73.56;101905.53;5022326;28;20064;-73
2022/06/02 01:50:23;;;;;;;8.18;6.13;;;;;;;8.46;73.64;101913.28;5041208;28;20021;-74
2022/06/02 01:53:03;;;;;;;8.52;6.18;;;;;;;8.42;74.08;101908.94;5042697;28;20037;-74
2022/06/02 01:55:47;;;;;;;7.50;6.03;;;;;;;8.38;73.74;101905.50;5041602;28;20103;-73
2022/06/02 01:58:42;;;;;;;7.13;6.15;;;;;;;8.39;73.47;101906.34;5041286;28;20037;-73
2022/06/02 02:01:35;;;;;;;8.88;6.82;;;;;;;8.39;73.00;101908.94;5041458;28;20036;-73
2022/06/02 02:04:10;;;;;;;9.15;7.25;;;;;;;8.36;73.20;101899.44;5040931;28;20032;-73
2022/06/02 02:06:35;;;;;;;8.68;7.25;;;;;;;8.34;73.80;101896.88;5039661;28;20029;-73
2022/06/02 02:09:35;;;;;;;10.07;8.00;;;;;;;8.37;72.41;101897.75;5038339;28;20506;-73
2022/06/02 02:12:01;;;;;;;10.40;7.95;;;;;;;8.32;73.24;101898.59;5039945;28;20031;-73
2022/06/02 02:14:38;;;;;;;10.52;7.85;;;;;;;8.30;73.06;101900.31;5042063;28;20033;-73
2022/06/02 02:17:15;;;;;;;8.40;6.20;;;;;;;8.25;73.28;101901.19;5042894;28;20033;-73
2022/06/02 02:19:54;;;;;;;7.35;5.97;;;;;;;8.18;72.92;101903.75;5037542;28;20037;-73
2022/06/02 02:23:11;;;;;;;7.80;6.13;;;;;;;8.13;73.01;101914.97;5039675;28;20466;-72
2022/06/02 02:25:54;;;;;;;7.88;5.88;;;;;;;8.08;73.53;101916.69;5004230;28;20397;-73
2022/06/02 02:28:22;;;;;;;8.52;5.70;;;;;;;8.04;74.30;101919.28;5041046;28;20143;-73
2022/06/02 02:31:05;;;;;;;8.90;6.18;;;;;;;8.05;73.61;101915.81;5038183;28;20033;-74
2022/06/02 02:33:46;;;;;;;8.65;6.18;;;;;;;8.03;74.46;101925.31;5039258;28;20361;-73
2022/06/02 02:36:29;;;;;;;8.55;6.65;;;;;;;8.03;74.05;101920.13;5038099;28;20464;-73
2022/06/02 02:39:13;;;;;;;8.43;6.38;;;;;;;8.04;73.97;101923.59;5041173;28;20025;-73
2022/06/02 02:42:21;;;;;;;7.95;6.10;;;;;;;8.01;73.84;101919.28;5040390;28;20040;-73
2022/06/02 02:45:01;;;;;;;9.20;6.35;;;;;;;7.99;74.07;101920.13;5020610;28;20034;-73
2022/06/02 02:47:37;;;;;;;8.43;6.57;;;;;;;7.96;74.56;101926.19;5035839;28;20056;-73
2022/06/02 02:50:10;;;;;;;9.27;6.97;;;;;;;7.96;75.33;101921.00;5039337;28;20068;-73
2022/06/02 02:52:54;;;;;;;9.60;6.90;;;;;;;7.98;75.44;101920.97;5037880;28;20036;-73
2022/06/02 02:55:41;;;;;;;10.13;7.28;;;;;;;7.98;75.53;101934.81;5041065;28;20025;-73
2022/06/02 02:58:17;;;;;;;10.73;7.32;;;;;;;7.99;75.64;101930.50;5038880;28;20044;-73
2022/06/02 03:01:05;;;;;;;8.25;6.72;;;;;;;7.98;75.29;101932.22;5040091;28;20117;-73
2022/06/02 03:03:59;;;;;;;8.32;6.45;;;;;;;7.98;75.24;101934.81;5041307;28;20086;-74
2022/06/02 03:06:26;;;;;;;9.43;6.78;;;;;;;7.91;75.29;101933.06;5043266;28;20293;-73
2022/06/02 03:08:58;;;;;;;8.75;6.65;;;;;;;7.86;75.48;101935.66;5042159;28;20029;-73
2022/06/02 03:11:49;;;;;;;9.02;7.15;;;;;;;7.86;75.51;101940.81;5040134;28;20074;-73
2022/06/02 03:14:21;;;;;;;9.10;7.22;;;;;;;7.86;75.46;101934.75;5040430;28;20024;-73
2022/06/02 03:16:55;;;;;;;11.35;7.90;;;;;;;7.83;75.94;101945.16;5040112;28;20524;-73
2022/06/02 03:20:01;;;;;;;11.63;7.68;;;;;;;7.84;75.95;101942.53;5037346;28;20438;-73
2022/06/02 03:22:37;;;;;;;10.10;8.10;;;;;;;7.85;76.63;101946.88;5041385;28;20383;-73
2022/06/02 03:25:15;;;;;;;10.65;8.63;;;;;;;7.87;76.43;101946.84;5041144;28;20057;-73
2022/06/02 03:27:47;;;;;;;9.32;7.22;;;;;;;7.86;76.04;101953.78;5043852;28;20033;-73
2022/06/02 03:30:19;;;;;;;9.50;7.53;;;;;;;7.83;76.03;101958.09;5043101;28;20453;-73
2022/06/02 03:33:14;;;;;;;10.02;7.93;;;;;;;7.82;75.62;101964.13;5046252;28;20047;-73
2022/06/02 03:36:34;;;;;;;9.93;8.02;;;;;;;7.82;75.39;101964.13;5044667;28;20028;-73
2022/06/02 03:39:05;;;;;;;10.30;7.97;;;;;;;7.81;76.55;101970.19;5013986;28;20056;-73
2022/06/02 03:41:36;;;;;;;9.90;7.38;;;;;;;7.81;76.34;101967.59;5043256;28;20142;-73
2022/06/02 03:44:20;;;;;;;11.15;6.70;;;;;;;7.78;75.29;101968.41;5045788;28;20379;-73
2022/06/02 03:47:10;;;;;;;9.05;6.75;;;;;;;7.77;75.54;101969.28;5042681;28;20036;-73
2022/06/02 03:49:44;;;;;;;12.57;7.30;;;;;;;7.79;75.00;101974.47;5041054;28;20032;-73
2022/06/02 03:52:21;;;;;;;10.48;8.38;;;;;;;7.79;74.79;101979.66;5042802;28;20475;-73
2022/06/02 03:54:53;;;;;;;9.00;6.93;;;;;;;7.78;73.83;101978.78;5043646;28;20029;-73
2022/06/02 03:57:43;;;;;;;11.63;8.18;;;;;;;7.74;73.70;101983.09;5041767;28;20108;-73
2022/06/02 04:00:36;;;;;;;8.80;6.82;;;;;;;7.67;74.16;101991.72;5045372;28;20036;-74
2022/06/02 04:03:05;;;;;;;7.20;5.88;;;;;;;7.57;75.27;101990.78;5043330;28;20100;-73
2022/06/02 04:05:52;;;;;;;9.35;5.90;;;;;;;7.51;74.75;101984.72;5044861;28;20591;-73
2022/06/02 04:08:26;;;;;;;8.27;6.20;;;;;;;7.49;75.68;101986.44;5041717;28;20033;-73
2022/06/02 04:11:16;;;;;;;9.77;6.63;;;;;;;7.49;75.27;101989.88;5039668;28;20033;-73
2022/06/02 04:14:06;;;;;;;8.13;6.57;;;;;;;7.52;75.26;101986.41;5043880;28;20044;-73
2022/06/02 04:16:56;;;;;;;9.35;5.82;;;;;;;7.54;75.31;101995.06;5040706;28;20036;-73
2022/06/02 04:22:32;;;;;;;11.35;8.05;;;;;;;7.60;75.92;102006.31;5041792;28;20087;-73
2022/06/02 04:25:17;;;;;;;10.63;7.70;;;;;;;7.68;76.46;102000.31;5043938;28;20069;-73
2022/06/02 04:28:08;;;;;;;10.48;8.50;;;;;;;7.74;76.58;101998.63;5041693;28;20071;-73
2022/06/02 04:30:40;;;;;;;12.18;9.27;;;;;;;7.84;76.47;102001.28;5039414;28;20091;-73
2022/06/02 04:33:24;;;;;;;14.52;10.05;;;;;;;7.86;76.81;102002.13;5054340;28;20056;-73
2022/06/02 04:36:01;;;;;;;13.82;10.35;;;;;;;7.92;77.20;102007.34;5041847;28;20029;-73
2022/06/02 04:38:35;;;;;;;14.07;10.65;;;;;;;7.97;77.04;102002.16;5040202;28;20033;-73
2022/06/02 04:41:28;;;;;;;15.13;11.32;;;;;;;8.01;77.24;102006.50;5040992;28;20031;-73
2022/06/02 04:44:15;;;;;;;14.43;11.25;;;;;;;8.06;76.77;102004.81;5039130;28;20112;-73
2022/06/02 04:47:06;;;;;;;15.55;11.55;;;;;;;8.12;76.53;102003.97;5041449;28;20032;-73
2022/06/02 04:49:45;;;;;;;17.10;11.88;;;;;;;8.16;77.36;102011.75;5039676;28;20056;-73
2022/06/02 04:52:27;;;;;;;16.92;13.02;;;;;;;8.22;77.20;102016.09;5039853;28;20044;-73
2022/06/02 04:55:10;;;;;;;;;;;;;;;8.31;75.07;102008.34;5039717;28;20488;-73
2022/06/02 04:58:04;;;;;;;14.60;10.65;;;;;;;8.36;76.73;102010.94;5041715;28;19912;-73
2022/06/02 05:00:43;;;;;;;16.38;12.00;;;;;;;8.38;77.73;102016.13;5038955;28;20365;-73
2022/06/02 05:03:46;;;;;;;16.40;12.18;;;;;;;8.43;77.46;102024.78;5038441;28;20395;-74
2022/06/02 05:06:35;;;;;;;16.70;12.45;;;;;;;8.50;77.89;102026.59;5039707;28;20399;-73
2022/06/02 05:09:19;;;;;;;16.35;12.82;;;;;;;8.58;78.60;102030.03;5037559;28;20554;-73
2022/06/02 05:12:28;;;;;;;18.30;13.27;;;;;;;8.67;78.20;102036.13;5043494;28;20060;-73
2022/06/02 05:15:17;;;;;;;18.33;13.18;;;;;;;8.73;78.66;102026.59;5024214;28;20123;-73
2022/06/02 05:18:22;;;;;;;19.05;13.32;;;;;;;8.81;78.26;102029.22;5042843;28;20037;-75
2022/06/02 05:21:09;;;;;;;18.83;14.30;;;;;;;8.88;78.37;102028.34;5043386;28;20792;-73
2022/06/02 05:24:02;;;;;;;19.85;13.93;;;;;;;8.95;78.40;102024.88;5040850;28;20029;-73
2022/06/02 05:26:45;;;;;;;18.63;14.07;;;;;;;9.02;78.75;102025.75;5059964;28;20035;-73
2022/06/02 05:29:45;;;;;;;18.88;14.32;;;;;;;9.11;78.65;102024.88;5037768;28;20586;-73
2022/06/02 05:32:25;;;;;;;19.67;14.02;;;;;;;9.17;78.94;102034.38;5040142;28;20066;-74
2022/06/02 05:35:05;;;;;;;18.10;14.23;;;;;;;9.23;79.03;102031.81;5043233;28;20111;-73
2022/06/02 05:37:46;;;;;;;20.58;14.23;;;;;;;9.30;78.39;102030.94;5040822;28;20041;-74
2022/06/02 05:40:34;;;;;;;19.90;13.98;;;;;;;9.38;78.32;102030.94;5057710;28;20030;-73
2022/06/02 05:43:02;;;;;;;19.77;14.30;;;;;;;9.43;78.68;102038.72;5043750;28;20028;-72
2022/06/02 05:45:59;;;;;;;22.17;16.05;;;;;;;9.49;78.30;102036.97;5043315;28;20480;-72
2022/06/02 05:48:48;;;;;;;20.23;14.77;;;;;;;9.55;78.33;102036.06;5043602;28;20100;-73
2022/06/02 05:51:35;;;;;;;19.52;14.38;;;;;;;9.61;78.89;102040.38;5046137;28;20126;-73
2022/06/02 05:54:06;;;;;;;23.15;15.65;;;;;;;9.67;78.79;102040.38;5044843;28;20488;-73
2022/06/02 05:56:34;;;;;;;21.45;15.38;;;;;;;9.72;78.87;102043.84;5048085;28;20033;-73
2022/06/02 05:59:19;;;;;;;21.02;15.93;;;;;;;9.78;78.83;102037.75;5044868;28;20102;-73
2022/06/02 06:02:08;;;;;;;21.63;15.50;;;;;;;9.86;79.53;102041.19;5042121;28;20053;-74
2022/06/02 06:04:58;;;;;;;21.15;15.05;;;;;;;9.96;80.11;102047.22;5058485;28;20475;-73
2022/06/02 06:07:58;;;;;;;20.52;15.75;;;;;;;10.05;79.73;102047.19;5046052;28;20017;-74
2022/06/02 06:10:34;;;;;;;21.15;15.77;;;;;;;10.15;80.65;102050.63;5043593;28;20025;-73
2022/06/02 06:13:24;;;;;;;19.60;14.57;;;;;;;10.24;79.88;102044.50;5053988;28;20023;-73
2022/06/02 06:16:09;;;;;;;19.48;14.80;;;;;;;10.28;79.83;102044.50;5048025;28;20103;-73
2022/06/02 06:18:43;;;;;;;19.88;14.48;;;;;;;10.36;79.68;102061.78;5043124;28;20055;-73
2022/06/02 06:21:13;;;;;;;20.52;15.15;;;;;;;10.40;79.53;102058.31;5048258;28;20025;-73
2022/06/02 06:23:50;;;;;;;18.83;14.45;;;;;;;10.47;79.81;102065.22;5048818;28;20031;-73
2022/06/02 06:26:21;;;;;;;19.88;14.13;;;;;;;10.54;80.00;102060.84;5051474;28;20024;-73
2022/06/02 06:29:11;;;;;;;17.95;13.98;;;;;;;10.62;79.61;102069.47;5050287;28;20108;-73
2022/06/02 06:31:54;;;;;;;18.77;13.23;;;;;;;10.71;80.19;102069.41;5052196;28;20511;-73
2022/06/02 06:34:38;;;;;;;18.85;14.20;;;;;;;10.84;80.66;102071.94;5050166;28;20025;-73
2022/06/02 06:37:18;;;;;;;18.10;13.57;;;;;;;10.94;79.53;102073.59;5050082;28;20021;-73
2022/06/02 06:40:02;;;;;;;17.17;12.57;;;;;;;11.00;79.20;102078.75;5048865;28;20075;-72
2022/06/02 06:42:45;;;;;;;16.40;12.45;;;;;;;11.06;78.29;102081.31;5048882;28;20029;-73
2022/06/02 06:45:17;;;;;;;17.60;12.45;;;;;;;11.15;78.40;102080.38;5048920;28;20041;-73
2022/06/02 06:47:58;;;;;;;17.27;12.38;;;;;;;11.20;78.31;102077.75;5050543;28;20075;-73
2022/06/02 06:50:54;;;;;;;13.40;10.77;;;;;;;11.29;78.11;102089.81;5049200;28;20017;-73
2022/06/02 06:53:32;;;;;;;15.93;11.10;;;;;;;11.39;77.93;102089.72;5048887;28;20108;-73
2022/06/02 06:56:13;;;;;;;17.65;12.00;;;;;;;11.51;76.79;102087.88;5049538;28;20055;-73
2022/06/02 06:59:07;;;;;;;16.23;12.35;;;;;;;11.59;77.15;102091.28;5050638;28;20412;-73
2022/06/02 07:02:14;;;;;;;16.05;11.25;;;;;;;11.66;76.04;102092.94;5050953;28;20025;-73
2022/06/02 07:05:01;;;;;;;18.77;12.55;;;;;;;11.75;76.04;102096.34;5053384;28;20044;-73
2022/06/02 07:07:48;;;;;;;16.17;12.50;;;;;;;11.82;75.75;102087.56;5053608;28;20048;-73
2022/06/02 07:10:28;;;;;;;15.00;11.65;;;;;;;11.91;75.74;102095.28;5053654;28;20033;-73
2022/06/02 07:13:14;;;;;;;15.15;12.57;;;;;;;12.04;75.60;102105.63;5055033;28;20093;-73
2022/06/02 07:15:53;;;;;;;15.40;12.48;;;;;;;12.14;74.71;102109.84;5052282;28;20087;-73
2022/06/02 07:18:45;;;;;;;13.43;10.73;;;;;;;12.24;74.50;102114.06;5054342;28;20035;-74
2022/06/02 07:21:28;;;;;;;13.45;9.70;;;;;;;12.36;73.61;102109.56;5037652;28;20033;-73
2022/06/02 07:24:18;;;;;;;10.57;8.68;;;;;;;12.45;72.40;102117.31;5053296;28;20095;-73
2022/06/02 07:27:20;;;;;;;11.55;9.55;;;;;;;12.56;73.50;102115.41;5053841;28;20435;-73
2022/06/02 07:29:58;;;;;;;11.82;8.25;;;;;;;12.67;72.21;102114.38;5051645;28;20034;-73
2022/06/02 07:32:45;;;;;;;10.70;8.95;;;;;;;12.72;70.91;102123.03;5048375;28;20025;-73
2022/06/02 07:35:35;;;;;;;9.40;7.57;;;;;;;12.77;70.16;102121.22;5049522;28;20383;-73
2022/06/02 07:38:28;;;;;;;11.60;8.30;;;;;;;12.86;71.51;102121.06;5052818;28;20044;-73
2022/06/02 07:41:23;;;;;;;10.25;8.45;;;;;;;12.89;70.66;102121.03;5057787;28;20017;-73
2022/06/02 07:44:16;;;;;;;10.23;8.18;;;;;;;12.96;70.90;102110.50;5052248;28;20044;-73
2022/06/02 07:47:01;;;;;;;8.55;7.28;;;;;;;13.01;69.48;102119.09;5052492;28;20021;-73
2022/06/02 07:49:35;;;;;;;10.00;7.07;;;;;;;13.04;68.95;102116.44;5050797;28;20029;-73
2022/06/02 07:52:36;;;;;;;7.63;6.80;;;;;;;13.10;68.72;102118.97;5052831;28;20039;-73
2022/06/02 07:55:23;;;;;;;9.10;7.43;;;;;;;13.20;68.74;102123.16;5050817;28;20024;-73
2022/06/02 07:57:57;;;;;;;9.35;7.45;;;;;;;13.30;69.19;102121.25;5051642;28;20029;-73
2022/06/02 08:00:27;;;;;;;8.25;6.75;;;;;;;13.38;67.36;102123.75;5049240;28;20109;-73
2022/06/02 08:03:18;;;;;;;8.18;7.07;;;;;;;13.45;68.01;102121.91;5052103;28;20028;-73
2022/06/02 08:05:57;;;;;;;8.00;6.82;;;;;;;13.49;66.85;102121.81;5051462;28;20029;-73
2022/06/02 08:08:52;;;;;;;7.32;6.50;;;;;;;13.60;67.47;102123.41;5052666;28;20112;-73
2022/06/02 08:11:48;;;;;;;7.75;5.80;;;;;;;13.66;66.73;102115.47;5052477;28;20066;-73
2022/06/02 08:14:33;;;;;;;5.22;4.55;;;;;;;13.71;64.55;102118.84;5049985;28;20025;-73
2022/06/02 08:17:28;;;;;;;4.97;4.05;;;;;;;13.75;62.66;102114.44;5048957;28;20024;-73
2022/06/02 08:19:57;;;;;;;2.67;2.30;;;;;;;13.78;59.52;102122.19;5055134;28;20162;-73
2022/06/02 08:22:40;;;;;;;3.45;2.60;;;;;;;13.79;59.60;102124.81;5052049;28;20318;-73
2022/06/02 08:25:21;;;;;;;4.63;3.10;;;;;;;13.77;57.47;102121.34;5046811;28;20495;-73
2022/06/02 08:28:07;;;;;;;6.25;3.20;;;;;;;13.75;58.85;102123.13;5046587;28;20032;-73
2022/06/02 08:30:56;;;;;;;6.03;3.50;;;;;;;13.81;60.03;102122.16;5049960;28;20029;-73
2022/06/02 08:33:38;;;;;;;4.40;3.60;;;;;;;13.86;59.25;102124.66;5049723;28;20021;-73
2022/06/02 08:36:10;;;;;;;5.25;4.40;;;;;;;13.92;60.07;102130.66;5044289;28;20027;-73
2022/06/02 08:39:30;;;;;;;6.82;4.50;;;;;;;13.96;60.59;102118.38;5044569;28;20025;-73
2022/06/02 08:42:20;;;;;;;4.65;3.95;;;;;;;13.96;60.00;102121.84;5044712;28;20035;-73
2022/06/02 08:45:09;;;;;;;4.85;4.22;;;;;;;14.01;61.13;102119.13;5046375;28;20087;-73
2022/06/02 08:48:10;;;;;;;6.05;4.22;;;;;;;14.08;60.74;102128.59;5047146;28;20025;-73
2022/06/02 08:51:00;;;;;;;5.75;4.50;;;;;;;14.15;61.33;102131.13;5040798;28;20036;-73
2022/06/02 08:53:52;;;;;;;7.50;5.60;;;;;;;14.19;59.87;102132.75;5051633;28;20056;-73
2022/06/02 08:56:36;;;;;;;7.10;5.68;;;;;;;14.23;59.59;102135.28;5043770;28;20373;-73
2022/06/02 08:59:16;;;;;;;6.88;5.70;;;;;;;14.20;59.41;102137.09;5047649;28;20104;-73
2022/06/02 09:02:09;;;;;;;6.93;6.15;;;;;;;14.12;59.14;102142.47;5047382;28;20047;-73
2022/06/02 09:05:19;;;;;;;7.13;5.70;;;;;;;14.07;61.30;102139.97;5045362;28;20567;-73
2022/06/02 09:08:06;;;;;;;7.45;6.30;;;;;;;14.02;59.98;102147.03;5044573;28;20075;-73
2022/06/02 09:10:34;;;;;;;7.63;6.38;;;;;;;14.04;60.66;102140.03;5044156;28;20536;-74
2022/06/02 09:13:08;;;;;;;7.25;6.18;;;;;;;14.10;58.36;102139.03;5048347;28;20028;-73
2022/06/02 09:15:55;;;;;;;7.13;6.28;;;;;;;14.14;59.59;102134.63;5046132;28;20056;-74
2022/06/02 09:18:42;;;;;;;6.82;6.13;;;;;;;14.20;60.87;102130.13;5046745;28;20452;-73
2022/06/02 09:21:14;;;;;;;7.78;6.60;;;;;;;14.29;60.62;102130.81;5045555;28;20070;-73
2022/06/02 09:23:45;;;;;;;6.85;6.15;;;;;;;14.33;57.31;102137.72;5044621;28;20031;-73
2022/06/02 09:26:19;;;;;;;7.30;6.50;;;;;;;14.34;56.48;102132.47;5045189;28;20040;-73
2022/06/02 09:28:51;;;;;;;8.52;6.47;;;;;;;14.34;59.01;102126.34;5044957;28;20041;-73
2022/06/02 09:31:33;;;;;;;7.55;6.75;;;;;;;14.39;58.70;102129.75;5045099;28;20025;-73
2022/06/02 09:34:25;;;;;;;6.70;5.78;;;;;;;14.45;58.98;102133.97;5044187;28;20677;-73
2022/06/02 09:37:08;;;;;;;8.82;6.15;;;;;;;14.49;59.35;102127.78;5040397;28;20028;-74
2022/06/02 09:39:52;;;;;;;6.40;5.53;;;;;;;14.55;56.74;102132.88;5040832;28;20025;-73
2022/06/02 09:43:05;;;;;;;6.90;5.65;;;;;;;14.63;58.54;102130.97;5036239;28;20495;-73
2022/06/02 09:45:54;;;;;;;6.43;5.63;;;;;;;14.68;58.95;102125.66;4983543;28;20077;-73
2022/06/02 09:48:31;;;;;;;6.88;5.88;;;;;;;14.70;57.36;102124.72;5047508;28;20111;-73
2022/06/02 09:51:22;;;;;;;7.78;6.72;;;;;;;14.77;58.72;102129.81;5047467;28;20024;-73
2022/06/02 09:54:11;;;;;;;7.55;5.93;;;;;;;14.83;57.98;102127.06;5046293;28;20056;-73
2022/06/02 09:56:42;;;;;;;7.90;6.60;;;;;;;14.89;58.29;102124.28;5049802;28;20029;-74
2022/06/02 09:59:27;;;;;;;8.23;7.10;;;;;;;14.87;58.90;102126.09;5050057;28;20082;-73
2022/06/02 10:02:28;;;;;;;9.60;6.55;;;;;;;14.84;58.49;102132.25;5050175;28;20033;-73
2022/06/02 10:05:19;;;;;;;7.50;6.70;;;;;;;14.83;55.48;102124.44;5050012;28;20033;-73
2022/06/02 10:08:01;;;;;;;7.50;6.45;;;;;;;14.92;57.95;102129.47;5050739;28;20037;-74
2022/06/02 10:10:50;;;;;;;7.72;6.75;;;;;;;15.00;57.96;102117.06;5049890;28;20026;-73
2022/06/02 10:13:43;;;;;;;10.13;6.88;;;;;;;15.05;58.05;102124.81;5048889;28;20027;-74
2022/06/02 10:16:48;;;;;;;9.52;7.10;;;;;;;15.10;57.86;102122.94;5048287;28;20033;-74
2022/06/02 10:19:31;;;;;;;6.93;6.05;;;;;;;15.16;56.52;102124.56;5053246;28;20443;-73
2022/06/02 10:22:50;;;;;;;7.15;6.30;;;;;;;15.25;58.83;102115.59;5050276;28;20476;-74
2022/06/02 10:25:42;;;;;;;8.38;5.78;;;;;;;15.34;58.06;102115.34;5002392;28;20567;-73
2022/06/02 10:28:25;;;;;;;8.32;6.13;;;;;;;15.37;56.10;102119.69;5047497;28;20029;-73
2022/06/02 10:31:13;;;;;;;7.28;5.63;;;;;;;15.42;56.73;102117.78;5050100;28;20034;-73
2022/06/02 10:34:11;;;;;;;7.65;5.90;;;;;;;15.52;57.05;102111.41;5050666;28;20032;-74
2022/06/02 10:37:12;;;;;;;7.13;6.13;;;;;;;15.55;55.60;102119.16;5018457;28;20056;-73
2022/06/02 10:39:59;;;;;;;7.68;6.00;;;;;;;15.57;53.96;102112.13;5054074;28;20314;-73
2022/06/02 10:43:08;;;;;;;6.25;5.63;;;;;;;15.69;56.10;102120.59;5054715;28;20059;-73
2022/06/02 10:46:01;;;;;;;8.10;5.70;;;;;;;15.78;54.52;102110.72;5046901;28;20036;-74
2022/06/02 10:48:35;;;;;;;6.10;5.32;;;;;;;15.91;53.53;102111.25;5053629;28;20380;-74
2022/06/02 10:51:30;;;;;;;6.80;5.70;;;;;;;16.02;54.30;102102.22;5053786;28;20025;-73
2022/06/02 10:54:16;;;;;;;6.38;5.40;;;;;;;16.07;53.87;102095.94;5053422;28;20032;-73
2022/06/02 10:57:11;;;;;;;5.82;4.68;;;;;;;16.12;52.10;102106.28;5053089;28;20059;-74
2022/06/02 11:00:03;;;;;;;6.93;5.20;;;;;;;16.15;52.86;102095.72;5017532;28;20509;-73
2022/06/02 11:02:41;;;;;;;6.07;5.40;;;;;;;16.19;53.27;102093.84;5053344;28;20181;-74
2022/06/02 11:05:27;;;;;;;5.40;4.85;;;;;;;16.19;51.34;102094.72;5054719;28;20074;-73
2022/06/02 11:08:14;;;;;;;6.30;5.47;;;;;;;16.26;52.84;102086.66;5051456;28;20029;-74
2022/06/02 11:11:00;;;;;;;6.50;4.93;;;;;;;16.31;52.27;102087.38;5056594;28;20124;-74
2022/06/02 11:13:52;;;;;;;5.28;4.78;;;;;;;16.41;52.10;102083.56;5054090;28;20487;-74
2022/06/02 11:16:49;;;;;;;5.82;5.25;;;;;;;16.46;50.35;102088.69;5058062;28;20059;-73
2022/06/02 11:19:45;;;;;;;6.20;5.10;;;;;;;16.53;51.31;102082.31;5055649;28;20464;-74
2022/06/02 11:22:32;;;;;;;6.07;5.47;;;;;;;16.58;51.11;102085.69;5057257;28;20111;-74
2022/06/02 11:25:24;;;;;;;6.47;5.18;;;;;;;16.62;52.61;102082.06;5056431;28;20110;-74
2022/06/02 11:27:57;;;;;;;4.90;4.40;;;;;;;16.64;49.48;102080.25;5054650;28;20025;-74
2022/06/02 11:30:41;;;;;;;5.25;4.70;;;;;;;16.68;49.82;102083.63;5061123;28;20025;-74
2022/06/02 11:33:14;;;;;;;5.43;4.68;;;;;;;16.65;50.33;102086.34;5060700;28;20597;-74
2022/06/02 11:36:07;;;;;;;7.53;5.03;;;;;;;16.61;52.09;102076.81;5054249;28;20025;-74
2022/06/02 11:39:03;;;;;;;6.82;5.63;;;;;;;16.58;51.35;102082.19;5053577;28;20024;-74
2022/06/02 11:41:35;;;;;;;7.00;6.10;;;;;;;16.56;50.68;102079.59;5051090;28;20095;-73
2022/06/02 11:44:11;;;;;;;7.50;6.60;;;;;;;16.59;50.54;102081.28;5053130;28;20079;-73
2022/06/02 11:46:55;;;;;;;7.38;6.38;;;;;;;16.57;47.09;102072.59;5059031;28;20503;-73
2022/06/02 11:49:49;;;;;;;6.88;6.03;;;;;;;16.60;49.55;102072.47;5060087;28;20399;-73
2022/06/02 11:52:52;;;;;;;6.57;5.22;;;;;;;16.65;51.59;102067.94;5056372;28;20033;-74
2022/06/02 11:55:29;;;;;;;6.38;5.28;;;;;;;16.73;51.02;102063.31;5059186;28;20407;-75
2022/06/02 11:58:24;;;;;;;5.80;4.40;;;;;;;16.82;48.77;102064.81;5052599;28;20025;-74
2022/06/02 12:01:17;;;;;;;6.18;4.85;;;;;;;16.95;51.41;102062.63;5045496;28;20013;-74
2022/06/02 12:04:03;;;;;;;6.05;5.10;;;;;;;17.02;50.59;102053.66;5046730;28;20603;-74
2022/06/02 12:06:47;;;;;;;5.15;4.57;;;;;;;17.09;50.03;102064.81;5050717;28;20075;-74
2022/06/02 12:09:40;;;;;;;5.20;4.43;;;;;;;17.18;49.93;102058.38;5058865;28;20459;-74
2022/06/02 12:12:11;;;;;;;5.07;4.07;;;;;;;17.28;49.72;102058.03;5057659;28;20023;-74
2022/06/02 12:14:55;;;;;;;;;;;;;;;17.37;51.17;102050.69;5054045;28;20193;-74
2022/06/02 12:17:34;;;;;;;4.97;4.00;;;;;;;17.34;47.71;102048.16;5049974;28;19921;-73
2022/06/02 12:20:24;;;;;;;4.20;3.67;;;;;;;17.34;49.05;102048.16;5058096;28;20017;-73
2022/06/02 12:23:18;;;;;;;3.90;3.50;;;;;;;17.34;49.19;102038.53;5059351;28;20107;-73
2022/06/02 12:26:00;;;;;;;3.55;3.13;;;;;;;17.37;48.70;102032.28;5049859;28;20105;-74
2022/06/02 12:28:38;;;;;;;4.25;3.70;;;;;;;17.35;46.91;102027.09;5056422;28;20036;-74
2022/06/02 12:31:22;;;;;;;3.55;3.10;;;;;;;17.39;47.79;102035.72;5059026;28;20069;-74
2022/06/02 12:34:23;;;;;;;4.57;3.42;;;;;;;17.41;47.09;102034.78;5057206;28;20029;-74
2022/06/02 12:37:15;;;;;;;4.40;3.63;;;;;;;17.37;46.91;102033.16;5054085;28;20036;-74
2022/06/02 12:39:57;;;;;;;4.40;3.63;;;;;;;17.30;46.13;102026.38;5041490;28;20036;-74
2022/06/02 12:42:34;;;;;;;4.13;3.65;;;;;;;17.28;46.82;102025.59;5064842;28;20025;-74
2022/06/02 12:45:32;;;;;;;4.95;3.70;;;;;;;17.27;48.01;102021.22;5053158;28;20086;-74
2022/06/02 12:48:27;;;;;;;3.70;3.30;;;;;;;17.28;48.18;102022.94;5050574;28;20021;-74
2022/06/02 12:51:03;;;;;;;4.53;3.65;;;;;;;17.32;47.33;102018.47;5052767;28;20021;-74
2022/06/02 12:53:47;;;;;;;4.30;3.47;;;;;;;17.36;48.56;102010.41;5052817;28;20028;-74
2022/06/02 12:56:44;;;;;;;3.88;3.10;;;;;;;17.38;47.26;102018.22;5052788;28;20032;-74